ADDS METAR Data INFO
IDs: Format: Raw Decoded Include TAF

Data at: 1510 UTC 29 May 2017

METAR for:KBRO (Brownsville Intl, TX, US)
Text:KBRO 291453Z 07013KT 10SM CLR 26/22 A2998 RMK AO2 SLP150 60010 T02560217 53008
Temperature: 25.6°C ( 78°F)
Dewpoint: 21.7°C ( 71°F) [RH = 79%]
Pressure (altimeter):29.98 inches Hg (1015.3 mb) [Sea level pressure: 1015.0 mb]
Winds:from the ENE (70 degrees) at 15 MPH (13 knots; 6.7 m/s)
Visibility:10 or more sm (16+ km)
Ceiling:at least 12,000 feet AGL
Clouds:sky clear below 12,000 feet AGL


Page loaded:  15:10 UTC  |   08:10 AM Pacific  |   09:10 AM Mountain  |   10:10 AM Central  |   11:10 AM Eastern

 

ADVISORIES

FORECASTS

FORECASTS

OBSERVATIONS

USER TOOLS

ABOUT US